This is the latest recevied weather packets stored in our database for station/object VK2BLR. If no packets are shown the sender has not sent any weather packets the latest 10 day(s).
| Time | Temp. | Humidity | Pressure | Rain* | Wind** | Luminosity | Snow |
|---|---|---|---|---|---|---|---|
| 1777776792 | 23.89° C | 48% | 1016.9 hPa | 0 mm | - | - | - |
| 1777775892 | 23.89° C | 47% | 1017.3 hPa | 0 mm | - | - | - |
| 1777774993 | 23.89° C | 48% | 1017.4 hPa | 0 mm | - | - | - |
| 1777774093 | 23.33° C | 49% | 1017.7 hPa | 0 mm | - | - | - |
| 1777773192 | 23.33° C | 50% | 1018 hPa | 0 mm | - | - | - |
| 1777772292 | 22.78° C | 51% | 1018.1 hPa | 0 mm | - | - | - |
| 1777771392 | 23.33° C | 49% | 1018.4 hPa | 0 mm | - | - | - |
| 1777770493 | 23.33° C | 44% | 1018.4 hPa | 0 mm | - | - | - |
| 1777769591 | 23.33° C | 45% | 1018.3 hPa | 0 mm | - | - | - |
| 1777768691 | 22.78° C | 47% | 1018.5 hPa | 0 mm | - | - | - |
| 1777767793 | 22.22° C | 50% | 1018.5 hPa | 0 mm | - | - | - |
| 1777766893 | 22.22° C | 51% | 1018.9 hPa | 0 mm | - | - | - |
| 1777765992 | 21.67° C | 52% | 1018.9 hPa | 0 mm | - | - | - |
| 1777765091 | 21.67° C | 52% | 1018.9 hPa | 0 mm | - | - | - |
| 1777764193 | 21.67° C | 52% | 1019 hPa | 0 mm | - | - | - |
| 1777763292 | 21.11° C | 53% | 1019 hPa | 0 mm | - | - | - |
| 1777762392 | 20.56° C | 54% | 1019.1 hPa | 0 mm | - | - | - |
| 1777761491 | 20° C | 54% | 1019.2 hPa | 0 mm | - | - | - |
| 1777760593 | 20° C | 54% | 1019 hPa | 0 mm | - | - | - |
| 1777759692 | 20° C | 54% | 1018.6 hPa | 0 mm | - | - | - |
| 1777758792 | 20° C | 54% | 1018.4 hPa | 0 mm | - | - | - |
| 1777757891 | 19.44° C | 54% | 1018.4 hPa | 0 mm | - | - | - |
| 1777756993 | 19.44° C | 55% | 1018.2 hPa | 0 mm | - | - | - |
| 1777756093 | 19.44° C | 55% | 1018 hPa | 0 mm | - | - | - |
| 1777755192 | 18.89° C | 56% | 1018 hPa | 0 mm | - | - | - |
* Rain latest hour (hover to see other rain measurements)
** Current wind speed in m/s (hover to see current wind gust speed)